sensor_id;sensor_type;location;lat;lon;timestamp;pressure;altitude;pressure_sealevel;temperature;humidity
16978;BME280;8605;52.548;4.918;2024-01-30T00:02:17;102585.53;;;6.50;97.13
16978;BME280;8605;52.548;4.918;2024-01-30T00:04:45;102574.69;;;6.53;97.65
16978;BME280;8605;52.548;4.918;2024-01-30T00:07:13;102581.47;;;6.59;97.65
16978;BME280;8605;52.548;4.918;2024-01-30T00:09:41;102573.81;;;6.53;97.37
16978;BME280;8605;52.548;4.918;2024-01-30T00:12:09;102572.69;;;6.57;97.78
16978;BME280;8605;52.548;4.918;2024-01-30T00:14:37;102570.88;;;6.57;97.93
16978;BME280;8605;52.548;4.918;2024-01-30T00:17:06;102568.38;;;6.54;97.84
16978;BME280;8605;52.548;4.918;2024-01-30T00:19:33;102553.53;;;6.49;97.67
16978;BME280;8605;52.548;4.918;2024-01-30T00:22:02;102550.41;;;6.56;97.90
16978;BME280;8605;52.548;4.918;2024-01-30T00:24:30;102556.47;;;6.60;97.80
16978;BME280;8605;52.548;4.918;2024-01-30T00:26:57;102552.66;;;6.64;98.30
16978;BME280;8605;52.548;4.918;2024-01-30T00:29:25;102557.72;;;6.68;97.98
16978;BME280;8605;52.548;4.918;2024-01-30T00:31:56;102557.63;;;6.70;98.34
16978;BME280;8605;52.548;4.918;2024-01-30T00:34:26;102551.13;;;6.60;97.84
16978;BME280;8605;52.548;4.918;2024-01-30T00:36:53;102555.81;;;6.70;97.81
16978;BME280;8605;52.548;4.918;2024-01-30T00:39:22;102564.22;;;6.64;97.65
16978;BME280;8605;52.548;4.918;2024-01-30T00:41:49;102565.34;;;6.60;97.96
16978;BME280;8605;52.548;4.918;2024-01-30T00:44:17;102565.25;;;6.62;98.09
16978;BME280;8605;52.548;4.918;2024-01-30T00:46:46;102553.69;;;6.61;98.53
16978;BME280;8605;52.548;4.918;2024-01-30T00:49:14;102567.38;;;6.71;98.09
16978;BME280;8605;52.548;4.918;2024-01-30T00:51:43;102564.22;;;6.64;97.53
16978;BME280;8605;52.548;4.918;2024-01-30T00:54:11;102564.78;;;6.69;97.71
16978;BME280;8605;52.548;4.918;2024-01-30T00:56:39;102558.84;;;6.64;97.51
16978;BME280;8605;52.548;4.918;2024-01-30T00:59:07;102560.59;;;6.65;97.73
16978;BME280;8605;52.548;4.918;2024-01-30T01:01:35;102561.25;;;6.69;97.85
16978;BME280;8605;52.548;4.918;2024-01-30T01:04:03;102551.25;;;6.72;98.01
16978;BME280;8605;52.548;4.918;2024-01-30T01:06:31;102552.19;;;6.71;97.96
16978;BME280;8605;52.548;4.918;2024-01-30T01:09:03;102545.81;;;6.74;97.95
16978;BME280;8605;52.548;4.918;2024-01-30T01:11:31;102559.94;;;6.76;98.11
16978;BME280;8605;52.548;4.918;2024-01-30T01:14:01;102562.81;;;6.73;97.78
16978;BME280;8605;52.548;4.918;2024-01-30T01:16:29;102555.81;;;6.70;97.80
16978;BME280;8605;52.548;4.918;2024-01-30T01:18:57;102562.19;;;6.68;97.52
16978;BME280;8605;52.548;4.918;2024-01-30T01:21:26;102565.56;;;6.71;97.52
16978;BME280;8605;52.548;4.918;2024-01-30T01:23:54;102560.28;;;6.86;98.57
16978;BME280;8605;52.548;4.918;2024-01-30T01:26:24;102553.69;;;6.91;98.25
16978;BME280;8605;52.548;4.918;2024-01-30T01:28:52;102539.13;;;6.81;97.35
16978;BME280;8605;52.548;4.918;2024-01-30T01:31:19;102546.97;;;6.84;97.85
16978;BME280;8605;52.548;4.918;2024-01-30T01:33:51;102540.47;;;6.88;97.86
16978;BME280;8605;52.548;4.918;2024-01-30T01:36:19;102536.19;;;6.86;97.68
16978;BME280;8605;52.548;4.918;2024-01-30T01:38:47;102543.44;;;6.83;97.47
16978;BME280;8605;52.548;4.918;2024-01-30T01:41:14;102538.00;;;6.85;97.32
16978;BME280;8605;52.548;4.918;2024-01-30T01:43:43;102526.66;;;6.96;97.98
16978;BME280;8605;52.548;4.918;2024-01-30T01:46:13;102523.69;;;7.00;97.98
16978;BME280;8605;52.548;4.918;2024-01-30T01:48:41;102529.59;;;6.91;97.76
16978;BME280;8605;52.548;4.918;2024-01-30T01:51:10;102509.63;;;6.97;97.71
16978;BME280;8605;52.548;4.918;2024-01-30T01:53:38;102526.28;;;7.02;97.85
16978;BME280;8605;52.548;4.918;2024-01-30T01:56:06;102518.06;;;7.05;97.65
16978;BME280;8605;52.548;4.918;2024-01-30T01:58:35;102519.88;;;7.04;97.52
16978;BME280;8605;52.548;4.918;2024-01-30T02:01:05;102511.84;;;7.04;97.59
16978;BME280;8605;52.548;4.918;2024-01-30T02:03:35;102509.84;;;7.08;97.57
16978;BME280;8605;52.548;4.918;2024-01-30T02:06:04;102511.28;;;6.99;97.02
16978;BME280;8605;52.548;4.918;2024-01-30T02:08:31;102532.31;;;7.05;97.53
16978;BME280;8605;52.548;4.918;2024-01-30T02:11:00;102519.19;;;7.01;97.14
16978;BME280;8605;52.548;4.918;2024-01-30T02:13:28;102513.84;;;7.01;97.28
16978;BME280;8605;52.548;4.918;2024-01-30T02:15:55;102507.81;;;6.97;97.15
16978;BME280;8605;52.548;4.918;2024-01-30T02:18:24;102500.06;;;7.07;97.81
16978;BME280;8605;52.548;4.918;2024-01-30T02:20:53;102498.25;;;7.07;97.73
16978;BME280;8605;52.548;4.918;2024-01-30T02:23:24;102490.81;;;6.98;97.73
16978;BME280;8605;52.548;4.918;2024-01-30T02:25:52;102488.63;;;7.05;97.63
16978;BME280;8605;52.548;4.918;2024-01-30T02:28:20;102483.38;;;7.03;97.42
16978;BME280;8605;52.548;4.918;2024-01-30T02:30:47;102491.38;;;7.03;97.65
16978;BME280;8605;52.548;4.918;2024-01-30T02:33:15;102476.19;;;7.04;97.56
16978;BME280;8605;52.548;4.918;2024-01-30T02:35:43;102479.72;;;7.04;97.72
16978;BME280;8605;52.548;4.918;2024-01-30T02:38:11;102497.91;;;6.99;97.67
16978;BME280;8605;52.548;4.918;2024-01-30T02:40:40;102493.69;;;7.09;97.65
16978;BME280;8605;52.548;4.918;2024-01-30T02:43:08;102499.50;;;7.02;97.47
16978;BME280;8605;52.548;4.918;2024-01-30T02:45:36;102503.03;;;7.02;97.78
16978;BME280;8605;52.548;4.918;2024-01-30T02:48:04;102501.44;;;7.00;97.74
16978;BME280;8605;52.548;4.918;2024-01-30T02:50:32;102499.34;;;7.05;97.61
16978;BME280;8605;52.548;4.918;2024-01-30T02:53:02;102497.22;;;7.10;97.27
16978;BME280;8605;52.548;4.918;2024-01-30T02:55:30;102487.09;;;7.15;97.06
16978;BME280;8605;52.548;4.918;2024-01-30T02:57:59;102482.03;;;7.10;97.24
16978;BME280;8605;52.548;4.918;2024-01-30T03:00:27;102473.91;;;7.12;97.26
16978;BME280;8605;52.548;4.918;2024-01-30T03:02:54;102471.78;;;7.03;97.14
16978;BME280;8605;52.548;4.918;2024-01-30T03:05:22;102476.38;;;7.01;97.15
16978;BME280;8605;52.548;4.918;2024-01-30T03:07:50;102467.88;;;7.08;97.22
16978;BME280;8605;52.548;4.918;2024-01-30T03:10:18;102466.34;;;7.04;97.06
16978;BME280;8605;52.548;4.918;2024-01-30T03:12:46;102463.69;;;7.04;97.29
16978;BME280;8605;52.548;4.918;2024-01-30T03:15:15;102442.34;;;7.03;97.11
16978;BME280;8605;52.548;4.918;2024-01-30T03:17:43;102448.97;;;7.11;97.49
16978;BME280;8605;52.548;4.918;2024-01-30T03:20:11;102453.84;;;7.05;97.30
16978;BME280;8605;52.548;4.918;2024-01-30T03:22:39;102450.31;;;7.18;97.09
16978;BME280;8605;52.548;4.918;2024-01-30T03:25:07;102453.53;;;7.09;97.22
16978;BME280;8605;52.548;4.918;2024-01-30T03:27:38;102449.91;;;7.10;97.25
16978;BME280;8605;52.548;4.918;2024-01-30T03:30:07;102447.31;;;7.09;97.25
16978;BME280;8605;52.548;4.918;2024-01-30T03:32:36;102445.41;;;7.11;96.95
16978;BME280;8605;52.548;4.918;2024-01-30T03:35:05;102444.72;;;7.07;97.29
16978;BME280;8605;52.548;4.918;2024-01-30T03:37:36;102446.75;;;7.04;97.17
16978;BME280;8605;52.548;4.918;2024-01-30T03:40:04;102444.09;;;7.04;97.25
16978;BME280;8605;52.548;4.918;2024-01-30T03:42:32;102438.91;;;7.01;97.29
16978;BME280;8605;52.548;4.918;2024-01-30T03:45:01;102453.06;;;7.03;97.14
16978;BME280;8605;52.548;4.918;2024-01-30T03:47:29;102453.28;;;7.00;97.07
16978;BME280;8605;52.548;4.918;2024-01-30T03:49:58;102457.38;;;7.05;96.53
16978;BME280;8605;52.548;4.918;2024-01-30T03:52:26;102449.13;;;7.08;97.21
16978;BME280;8605;52.548;4.918;2024-01-30T03:54:53;102452.13;;;7.04;97.05
16978;BME280;8605;52.548;4.918;2024-01-30T03:57:21;102446.53;;;7.07;97.16
16978;BME280;8605;52.548;4.918;2024-01-30T03:59:49;102444.84;;;7.06;97.24
16978;BME280;8605;52.548;4.918;2024-01-30T04:02:16;102430.63;;;7.05;97.00
16978;BME280;8605;52.548;4.918;2024-01-30T04:04:48;102436.06;;;7.04;97.21
16978;BME280;8605;52.548;4.918;2024-01-30T04:07:17;102436.81;;;7.06;97.17
16978;BME280;8605;52.548;4.918;2024-01-30T04:09:49;102428.69;;;7.07;97.05
16978;BME280;8605;52.548;4.918;2024-01-30T04:12:17;102422.47;;;7.07;97.15
16978;BME280;8605;52.548;4.918;2024-01-30T04:14:45;102427.06;;;7.05;97.09
16978;BME280;8605;52.548;4.918;2024-01-30T04:17:13;102430.63;;;7.05;97.15
16978;BME280;8605;52.548;4.918;2024-01-30T04:19:40;102419.91;;;7.05;97.55
16978;BME280;8605;52.548;4.918;2024-01-30T04:22:08;102431.47;;;7.06;97.16
16978;BME280;8605;52.548;4.918;2024-01-30T04:24:37;102430.63;;;7.05;97.21
16978;BME280;8605;52.548;4.918;2024-01-30T04:27:06;102428.03;;;7.04;97.11
16978;BME280;8605;52.548;4.918;2024-01-30T04:29:33;102431.66;;;7.03;96.91
16978;BME280;8605;52.548;4.918;2024-01-30T04:32:01;102430.78;;;7.02;97.02
16978;BME280;8605;52.548;4.918;2024-01-30T04:34:30;102430.50;;;7.07;97.04
16978;BME280;8605;52.548;4.918;2024-01-30T04:36:58;102418.75;;;7.09;97.38
16978;BME280;8605;52.548;4.918;2024-01-30T04:39:25;102425.91;;;7.09;97.07
16978;BME280;8605;52.548;4.918;2024-01-30T04:41:55;102424.19;;;7.08;97.24
16978;BME280;8605;52.548;4.918;2024-01-30T04:44:23;102416.75;;;7.13;97.35
16978;BME280;8605;52.548;4.918;2024-01-30T04:46:50;102410.72;;;7.09;97.08
16978;BME280;8605;52.548;4.918;2024-01-30T04:49:18;102411.28;;;7.14;97.14
16978;BME280;8605;52.548;4.918;2024-01-30T04:51:46;102408.25;;;7.06;96.97
16978;BME280;8605;52.548;4.918;2024-01-30T04:54:14;102399.72;;;7.14;97.34
16978;BME280;8605;52.548;4.918;2024-01-30T04:56:41;102398.84;;;7.13;97.20
16978;BME280;8605;52.548;4.918;2024-01-30T04:59:11;102390.53;;;7.18;97.24
16978;BME280;8605;52.548;4.918;2024-01-30T05:01:39;102398.75;;;7.15;97.09
16978;BME280;8605;52.548;4.918;2024-01-30T05:04:07;102397.72;;;7.17;97.06
16978;BME280;8605;52.548;4.918;2024-01-30T05:06:37;102392.28;;;7.19;96.86
16978;BME280;8605;52.548;4.918;2024-01-30T05:09:05;102398.66;;;7.16;97.29
16978;BME280;8605;52.548;4.918;2024-01-30T05:11:36;102403.94;;;7.18;96.80
16978;BME280;8605;52.548;4.918;2024-01-30T05:14:04;102392.44;;;7.16;96.81
16978;BME280;8605;52.548;4.918;2024-01-30T05:16:34;102389.88;;;7.14;97.15
16978;BME280;8605;52.548;4.918;2024-01-30T05:19:02;102396.16;;;7.13;96.94
16978;BME280;8605;52.548;4.918;2024-01-30T05:21:29;102400.31;;;7.19;97.09
16978;BME280;8605;52.548;4.918;2024-01-30T05:23:57;102398.66;;;7.16;97.25
16978;BME280;8605;52.548;4.918;2024-01-30T05:26:25;102400.31;;;7.19;97.13
16978;BME280;8605;52.548;4.918;2024-01-30T05:28:53;102396.00;;;7.16;97.10
16978;BME280;8605;52.548;4.918;2024-01-30T05:31:20;102401.59;;;7.26;97.12
16978;BME280;8605;52.548;4.918;2024-01-30T05:33:50;102399.22;;;7.21;97.35
16978;BME280;8605;52.548;4.918;2024-01-30T05:36:18;102391.66;;;7.28;97.04
16978;BME280;8605;52.548;4.918;2024-01-30T05:38:45;102392.75;;;7.26;96.80
16978;BME280;8605;52.548;4.918;2024-01-30T05:41:13;102396.25;;;7.26;96.89
16978;BME280;8605;52.548;4.918;2024-01-30T05:43:42;102395.19;;;7.29;97.12
16978;BME280;8605;52.548;4.918;2024-01-30T05:46:10;102382.50;;;7.18;97.23
16978;BME280;8605;52.548;4.918;2024-01-30T05:48:38;102395.28;;;7.27;96.99
16978;BME280;8605;52.548;4.918;2024-01-30T05:51:08;102397.56;;;7.33;97.45
16978;BME280;8605;52.548;4.918;2024-01-30T05:53:36;102392.63;;;7.27;97.36
16978;BME280;8605;52.548;4.918;2024-01-30T05:56:04;102384.78;;;7.38;97.30
16978;BME280;8605;52.548;4.918;2024-01-30T05:58:32;102389.66;;;7.32;97.80
16978;BME280;8605;52.548;4.918;2024-01-30T06:01:00;102394.81;;;7.35;97.57
16978;BME280;8605;52.548;4.918;2024-01-30T06:03:28;102378.28;;;7.28;97.78
16978;BME280;8605;52.548;4.918;2024-01-30T06:05:56;102393.38;;;7.43;97.46
16978;BME280;8605;52.548;4.918;2024-01-30T06:08:25;102393.19;;;7.32;96.97
16978;BME280;8605;52.548;4.918;2024-01-30T06:10:53;102390.31;;;7.35;96.94
16978;BME280;8605;52.548;4.918;2024-01-30T06:13:21;102384.66;;;7.40;97.24
16978;BME280;8605;52.548;4.918;2024-01-30T06:15:48;102371.47;;;7.37;97.25
16978;BME280;8605;52.548;4.918;2024-01-30T06:18:16;102379.03;;;7.44;97.07
16978;BME280;8605;52.548;4.918;2024-01-30T06:20:44;102382.19;;;7.37;97.20
16978;BME280;8605;52.548;4.918;2024-01-30T06:23:12;102388.19;;;7.40;97.31
16978;BME280;8605;52.548;4.918;2024-01-30T06:25:42;102386.19;;;7.44;97.60
16978;BME280;8605;52.548;4.918;2024-01-30T06:28:10;102395.34;;;7.40;97.24
16978;BME280;8605;52.548;4.918;2024-01-30T06:30:37;102388.41;;;7.37;97.53
16978;BME280;8605;52.548;4.918;2024-01-30T06:33:05;102391.25;;;7.48;97.78
16978;BME280;8605;52.548;4.918;2024-01-30T06:35:33;102391.44;;;7.45;97.02
16978;BME280;8605;52.548;4.918;2024-01-30T06:38:10;102400.13;;;7.49;97.87
16978;BME280;8605;52.548;4.918;2024-01-30T06:40:38;102397.47;;;7.49;97.01
16978;BME280;8605;52.548;4.918;2024-01-30T06:43:07;102396.59;;;7.48;96.93
16978;BME280;8605;52.548;4.918;2024-01-30T06:45:36;102402.16;;;7.45;96.96
16978;BME280;8605;52.548;4.918;2024-01-30T06:48:04;102400.53;;;7.43;97.07
16978;BME280;8605;52.548;4.918;2024-01-30T06:50:32;102406.53;;;7.46;97.30
16978;BME280;8605;52.548;4.918;2024-01-30T06:53:00;102401.31;;;7.45;96.96
16978;BME280;8605;52.548;4.918;2024-01-30T06:55:28;102394.53;;;7.66;97.30
16978;BME280;8605;52.548;4.918;2024-01-30T06:57:56;102402.00;;;7.61;97.33
16978;BME280;8605;52.548;4.918;2024-01-30T07:00:25;102395.25;;;7.55;97.59
16978;BME280;8605;52.548;4.918;2024-01-30T07:02:53;102413.28;;;7.66;97.24
16978;BME280;8605;52.548;4.918;2024-01-30T07:05:21;102409.41;;;7.57;97.08
16978;BME280;8605;52.548;4.918;2024-01-30T07:07:49;102412.41;;;7.66;97.73
16978;BME280;8605;52.548;4.918;2024-01-30T07:10:17;102418.75;;;7.65;97.48
16978;BME280;8605;52.548;4.918;2024-01-30T07:12:45;102417.59;;;7.69;97.69
16978;BME280;8605;52.548;4.918;2024-01-30T07:15:13;102420.72;;;7.75;97.01
16978;BME280;8605;52.548;4.918;2024-01-30T07:17:44;102426.19;;;7.74;97.48
16978;BME280;8605;52.548;4.918;2024-01-30T07:20:12;102433.25;;;7.75;97.09
16978;BME280;8605;52.548;4.918;2024-01-30T07:22:43;102434.13;;;7.75;97.18
16978;BME280;8605;52.548;4.918;2024-01-30T07:25:12;102433.91;;;7.78;97.64
16978;BME280;8605;52.548;4.918;2024-01-30T07:27:39;102432.66;;;7.84;97.67
16978;BME280;8605;52.548;4.918;2024-01-30T07:30:08;102439.44;;;7.89;97.81
16978;BME280;8605;52.548;4.918;2024-01-30T07:32:35;102436.53;;;7.92;97.52
16978;BME280;8605;52.548;4.918;2024-01-30T07:35:05;102438.25;;;7.93;97.14
16978;BME280;8605;52.548;4.918;2024-01-30T07:37:35;102434.53;;;7.96;96.99
16978;BME280;8605;52.548;4.918;2024-01-30T07:40:04;102444.31;;;7.97;97.38
16978;BME280;8605;52.548;4.918;2024-01-30T07:42:36;102447.44;;;8.03;96.72
16978;BME280;8605;52.548;4.918;2024-01-30T07:45:04;102450.13;;;8.03;97.15
16978;BME280;8605;52.548;4.918;2024-01-30T07:47:32;102460.97;;;8.15;97.65
16978;BME280;8605;52.548;4.918;2024-01-30T07:50:03;102459.72;;;8.20;97.56
16978;BME280;8605;52.548;4.918;2024-01-30T07:52:32;102464.22;;;8.20;97.79
16978;BME280;8605;52.548;4.918;2024-01-30T07:55:00;102452.09;;;8.27;97.72
16978;BME280;8605;52.548;4.918;2024-01-30T07:57:30;102437.50;;;8.18;96.94
16978;BME280;8605;52.548;4.918;2024-01-30T07:59:58;102450.00;;;8.32;97.41
16978;BME280;8605;52.548;4.918;2024-01-30T08:02:26;102455.47;;;8.30;96.86
16978;BME280;8605;52.548;4.918;2024-01-30T08:04:54;102450.34;;;8.40;96.99
16978;BME280;8605;52.548;4.918;2024-01-30T08:07:22;102456.56;;;8.40;96.90
16978;BME280;8605;52.548;4.918;2024-01-30T08:09:52;102452.72;;;8.45;97.35
16978;BME280;8605;52.548;4.918;2024-01-30T08:12:20;102454.00;;;8.52;96.69
16978;BME280;8605;52.548;4.918;2024-01-30T08:14:48;102465.84;;;8.62;96.24
16978;BME280;8605;52.548;4.918;2024-01-30T08:17:15;102470.56;;;8.58;96.98
16978;BME280;8605;52.548;4.918;2024-01-30T08:19:43;102464.75;;;8.64;96.08
16978;BME280;8605;52.548;4.918;2024-01-30T08:22:12;102449.19;;;8.69;96.36
16978;BME280;8605;52.548;4.918;2024-01-30T08:24:41;102451.44;;;8.63;96.34
16978;BME280;8605;52.548;4.918;2024-01-30T08:27:10;102454.38;;;8.72;96.32
16978;BME280;8605;52.548;4.918;2024-01-30T08:29:38;102471.44;;;8.71;96.55
16978;BME280;8605;52.548;4.918;2024-01-30T08:32:06;102465.31;;;8.82;96.62
16978;BME280;8605;52.548;4.918;2024-01-30T08:34:34;102467.47;;;8.77;95.69
16978;BME280;8605;52.548;4.918;2024-01-30T08:37:03;102468.22;;;8.79;95.81
16978;BME280;8605;52.548;4.918;2024-01-30T08:39:31;102471.66;;;8.81;96.45
16978;BME280;8605;52.548;4.918;2024-01-30T08:41:59;102476.19;;;8.93;95.53
16978;BME280;8605;52.548;4.918;2024-01-30T08:44:28;102478.31;;;8.88;95.66
16978;BME280;8605;52.548;4.918;2024-01-30T08:46:56;102474.66;;;8.89;96.48
16978;BME280;8605;52.548;4.918;2024-01-30T08:49:25;102484.34;;;8.92;96.14
16978;BME280;8605;52.548;4.918;2024-01-30T08:51:53;102467.47;;;8.90;96.32
16978;BME280;8605;52.548;4.918;2024-01-30T08:54:21;102486.41;;;9.01;95.67
16978;BME280;8605;52.548;4.918;2024-01-30T08:56:49;102496.81;;;9.05;95.22
16978;BME280;8605;52.548;4.918;2024-01-30T08:59:18;102494.97;;;9.06;95.90
16978;BME280;8605;52.548;4.918;2024-01-30T09:01:48;102499.91;;;9.12;95.55
16978;BME280;8605;52.548;4.918;2024-01-30T09:04:29;102505.72;;;9.18;95.43
16978;BME280;8605;52.548;4.918;2024-01-30T09:06:57;102496.91;;;9.16;95.42
16978;BME280;8605;52.548;4.918;2024-01-30T09:09:25;102498.53;;;9.19;95.81
16978;BME280;8605;52.548;4.918;2024-01-30T09:11:53;102496.47;;;9.10;94.69
16978;BME280;8605;52.548;4.918;2024-01-30T09:14:20;102505.72;;;9.18;95.17
16978;BME280;8605;52.548;4.918;2024-01-30T09:16:49;102508.84;;;9.12;94.45
16978;BME280;8605;52.548;4.918;2024-01-30T09:19:17;102502.38;;;9.15;94.85
16978;BME280;8605;52.548;4.918;2024-01-30T09:21:45;102491.88;;;9.12;94.42
16978;BME280;8605;52.548;4.918;2024-01-30T09:24:13;102500.25;;;9.07;94.49
16978;BME280;8605;52.548;4.918;2024-01-30T09:26:41;102503.22;;;9.03;95.44
16978;BME280;8605;52.548;4.918;2024-01-30T09:29:08;102498.97;;;9.00;94.24
16978;BME280;8605;52.548;4.918;2024-01-30T09:31:36;102508.69;;;9.01;94.94
16978;BME280;8605;52.548;4.918;2024-01-30T09:34:06;102506.25;;;8.98;94.62
16978;BME280;8605;52.548;4.918;2024-01-30T09:36:34;102507.09;;;8.99;94.72
16978;BME280;8605;52.548;4.918;2024-01-30T09:39:04;102508.50;;;8.92;94.49
16978;BME280;8605;52.548;4.918;2024-01-30T09:41:33;102532.44;;;8.95;95.10
16978;BME280;8605;52.548;4.918;2024-01-30T09:44:04;102550.50;;;8.93;94.87
16978;BME280;8605;52.548;4.918;2024-01-30T09:46:34;102531.78;;;8.91;94.16
16978;BME280;8605;52.548;4.918;2024-01-30T09:49:03;102533.19;;;8.84;94.29
16978;BME280;8605;52.548;4.918;2024-01-30T09:51:35;102535.09;;;8.82;93.04
16978;BME280;8605;52.548;4.918;2024-01-30T09:54:04;102554.13;;;8.79;93.64
16978;BME280;8605;52.548;4.918;2024-01-30T09:56:31;102550.97;;;8.72;94.23
16978;BME280;8605;52.548;4.918;2024-01-30T09:59:01;102559.34;;;8.68;94.56
16978;BME280;8605;52.548;4.918;2024-01-30T10:01:30;102540.00;;;8.63;93.98
16978;BME280;8605;52.548;4.918;2024-01-30T10:04:02;102556.31;;;8.60;95.09
16978;BME280;8605;52.548;4.918;2024-01-30T10:06:32;102552.78;;;8.59;94.51
16978;BME280;8605;52.548;4.918;2024-01-30T10:09:00;102548.28;;;8.60;94.95
16978;BME280;8605;52.548;4.918;2024-01-30T10:11:28;102544.81;;;8.58;94.42
16978;BME280;8605;52.548;4.918;2024-01-30T10:13:56;102553.72;;;8.58;94.93
16978;BME280;8605;52.548;4.918;2024-01-30T10:16:24;102557.28;;;8.59;94.90
16978;BME280;8605;52.548;4.918;2024-01-30T10:18:52;102557.09;;;8.62;94.60
16978;BME280;8605;52.548;4.918;2024-01-30T10:21:20;102548.91;;;8.63;95.20
16978;BME280;8605;52.548;4.918;2024-01-30T10:23:50;102547.00;;;8.65;94.21
16978;BME280;8605;52.548;4.918;2024-01-30T10:26:18;102544.41;;;8.64;94.50
16978;BME280;8605;52.548;4.918;2024-01-30T10:28:45;102556.78;;;8.66;94.42
16978;BME280;8605;52.548;4.918;2024-01-30T10:31:16;102551.31;;;8.68;94.85
16978;BME280;8605;52.548;4.918;2024-01-30T10:33:44;102560.31;;;8.67;94.72
16978;BME280;8605;52.548;4.918;2024-01-30T10:36:14;102563.00;;;8.67;95.76
16978;BME280;8605;52.548;4.918;2024-01-30T10:38:52;102567.50;;;8.66;95.13
16978;BME280;8605;52.548;4.918;2024-01-30T10:41:26;102564.59;;;8.69;95.13
16978;BME280;8605;52.548;4.918;2024-01-30T10:44:01;102563.72;;;8.69;96.07
16978;BME280;8605;52.548;4.918;2024-01-30T10:46:31;102581.97;;;8.64;95.65
16978;BME280;8605;52.548;4.918;2024-01-30T10:49:02;102564.47;;;8.58;96.01
16978;BME280;8605;52.548;4.918;2024-01-30T10:51:32;102582.69;;;8.53;96.68
16978;BME280;8605;52.548;4.918;2024-01-30T10:54:04;102588.16;;;8.52;96.95
16978;BME280;8605;52.548;4.918;2024-01-30T10:56:33;102589.75;;;8.41;96.71
16978;BME280;8605;52.548;4.918;2024-01-30T10:59:03;102586.47;;;8.36;97.94
16978;BME280;8605;52.548;4.918;2024-01-30T11:01:34;102582.66;;;8.40;97.80
16978;BME280;8605;52.548;4.918;2024-01-30T11:04:03;102576.41;;;8.40;97.65
16978;BME280;8605;52.548;4.918;2024-01-30T11:06:31;102590.06;;;8.50;97.27
16978;BME280;8605;52.548;4.918;2024-01-30T11:09:01;102579.56;;;8.47;97.57
16978;BME280;8605;52.548;4.918;2024-01-30T11:11:32;102568.72;;;8.48;97.23
16978;BME280;8605;52.548;4.918;2024-01-30T11:14:01;102568.06;;;8.45;97.39
16978;BME280;8605;52.548;4.918;2024-01-30T11:16:31;102584.16;;;8.45;97.75
16978;BME280;8605;52.548;4.918;2024-01-30T11:19:02;102588.16;;;8.52;97.17
16978;BME280;8605;52.548;4.918;2024-01-30T11:21:30;102585.69;;;8.49;97.21
16978;BME280;8605;52.548;4.918;2024-01-30T11:23:58;102573.31;;;8.46;96.88
16978;BME280;8605;52.548;4.918;2024-01-30T11:26:27;102581.78;;;8.40;97.24
16978;BME280;8605;52.548;4.918;2024-01-30T11:28:57;102584.94;;;8.47;96.90
16978;BME280;8605;52.548;4.918;2024-01-30T11:31:25;102579.75;;;8.43;97.46
16978;BME280;8605;52.548;4.918;2024-01-30T11:33:53;102581.56;;;8.43;96.94
16978;BME280;8605;52.548;4.918;2024-01-30T11:36:25;102578.16;;;8.41;96.54
16978;BME280;8605;52.548;4.918;2024-01-30T11:38:54;102573.53;;;8.43;97.27
16978;BME280;8605;52.548;4.918;2024-01-30T11:41:23;102572.69;;;8.43;97.13
16978;BME280;8605;52.548;4.918;2024-01-30T11:43:52;102576.31;;;8.41;97.31
16978;BME280;8605;52.548;4.918;2024-01-30T11:46:24;102566.25;;;8.45;97.03
16978;BME280;8605;52.548;4.918;2024-01-30T11:48:52;102571.28;;;8.50;97.58
16978;BME280;8605;52.548;4.918;2024-01-30T11:51:20;102573.53;;;8.43;97.23
16978;BME280;8605;52.548;4.918;2024-01-30T11:53:49;102575.91;;;8.48;96.80
16978;BME280;8605;52.548;4.918;2024-01-30T11:56:17;102583.00;;;8.49;96.90
16978;BME280;8605;52.548;4.918;2024-01-30T11:58:46;102578.78;;;8.45;96.62
16978;BME280;8605;52.548;4.918;2024-01-30T12:01:16;102574.59;;;8.40;97.03
16978;BME280;8605;52.548;4.918;2024-01-30T12:03:50;102585.50;;;8.37;96.89
16978;BME280;8605;52.548;4.918;2024-01-30T12:06:19;102586.47;;;8.36;96.84
16978;BME280;8605;52.548;4.918;2024-01-30T12:08:56;102576.31;;;8.41;96.65
16978;BME280;8605;52.548;4.918;2024-01-30T12:11:24;102580.38;;;8.34;97.45
16978;BME280;8605;52.548;4.918;2024-01-30T12:13:52;102587.84;;;8.29;96.77
16978;BME280;8605;52.548;4.918;2024-01-30T12:16:20;102592.16;;;8.32;96.67
16978;BME280;8605;52.548;4.918;2024-01-30T12:18:59;102589.84;;;8.26;96.36
16978;BME280;8605;52.548;4.918;2024-01-30T12:21:27;102587.84;;;8.29;96.53
16978;BME280;8605;52.548;4.918;2024-01-30T12:23:56;102587.06;;;8.27;97.13
16978;BME280;8605;52.548;4.918;2024-01-30T12:26:24;102582.00;;;8.23;96.96
16978;BME280;8605;52.548;4.918;2024-01-30T12:28:54;102584.38;;;8.27;97.25
16978;BME280;8605;52.548;4.918;2024-01-30T12:31:25;102588.41;;;8.20;97.04
16978;BME280;8605;52.548;4.918;2024-01-30T12:33:55;102586.50;;;8.22;97.02
16978;BME280;8605;52.548;4.918;2024-01-30T12:36:25;102595.19;;;8.26;96.87
16978;BME280;8605;52.548;4.918;2024-01-30T12:38:53;102602.28;;;8.27;96.80
16978;BME280;8605;52.548;4.918;2024-01-30T12:41:21;102599.31;;;8.31;96.93
16978;BME280;8605;52.548;4.918;2024-01-30T12:43:54;102598.47;;;8.31;96.90
16978;BME280;8605;52.548;4.918;2024-01-30T12:46:26;102595.88;;;8.29;96.70
16978;BME280;8605;52.548;4.918;2024-01-30T12:48:56;102594.16;;;8.28;96.52
16978;BME280;8605;52.548;4.918;2024-01-30T12:51:24;102597.00;;;8.25;96.45
16978;BME280;8605;52.548;4.918;2024-01-30T12:53:52;102601.25;;;8.29;96.75
16978;BME280;8605;52.548;4.918;2024-01-30T12:56:20;102597.97;;;8.24;96.52
16978;BME280;8605;52.548;4.918;2024-01-30T12:58:47;102594.34;;;8.25;95.98
16978;BME280;8605;52.548;4.918;2024-01-30T13:01:19;102585.97;;;8.30;96.80
16978;BME280;8605;52.548;4.918;2024-01-30T13:03:47;102585.25;;;8.28;96.85
16978;BME280;8605;52.548;4.918;2024-01-30T13:06:18;102590.31;;;8.32;96.44
16978;BME280;8605;52.548;4.918;2024-01-30T13:08:46;102591.34;;;8.30;97.10
16978;BME280;8605;52.548;4.918;2024-01-30T13:11:14;102600.97;;;8.34;96.50
16978;BME280;8605;52.548;4.918;2024-01-30T13:13:47;102594.91;;;8.30;97.45
16978;BME280;8605;52.548;4.918;2024-01-30T13:16:15;102591.66;;;8.25;97.79
16978;BME280;8605;52.548;4.918;2024-01-30T13:18:44;102588.66;;;8.30;96.96